Time;durP1;ratioP1;P1;durP2;ratioP2;P2;SDS_P1;SDS_P2;PMS_P1;PMS_P2;Temp;Humidity;BMP_temperature;BMP_pressure;BME280_temperature;BME280_humidity;BME280_pressure;Samples;Min_cycle;Max_cycle;Signal;HPM_P1;HPM_P2
2022/07/31 00:01:39;;;;;;;7.53;3.60;;;19.30;99.90;;;;;;5050976;28;20754;-51
2022/07/31 00:04:05;;;;;;;8.03;4.07;;;19.40;99.90;;;;;;5052691;28;20381;-51
2022/07/31 00:06:31;;;;;;;9.57;3.50;;;19.50;99.90;;;;;;5051827;28;20405;-60
2022/07/31 00:08:56;;;;;;;7.13;3.53;;;19.50;99.90;;;;;;5051369;28;20424;-52
2022/07/31 00:11:22;;;;;;;9.70;3.80;;;19.50;99.90;;;;;;5052556;28;20857;-51
2022/07/31 00:13:47;;;;;;;8.85;3.92;;;19.50;99.90;;;;;;5051483;28;20393;-51
2022/07/31 00:16:13;;;;;;;9.18;3.67;;;19.50;99.90;;;;;;5052171;28;20405;-51
2022/07/31 00:18:38;;;;;;;8.60;3.90;;;19.50;99.90;;;;;;5051644;28;20413;-51
2022/07/31 00:21:05;;;;;;;7.80;3.53;;;19.50;99.90;;;;;;5052178;28;20413;-51
2022/07/31 00:23:30;;;;;;;8.00;3.70;;;19.50;99.90;;;;;;5051814;28;20401;-55
2022/07/31 00:25:56;;;;;;;8.20;3.90;;;19.60;99.90;;;;;;5051755;28;20389;-51
2022/07/31 00:28:21;;;;;;;7.83;3.70;;;19.60;99.90;;;;;;5051814;28;20597;-50
2022/07/31 00:30:47;;;;;;;11.10;3.90;;;19.60;99.90;;;;;;5051573;28;20386;-54
2022/07/31 00:33:13;;;;;;;9.23;3.80;;;19.60;99.90;;;;;;5051998;28;20393;-51
2022/07/31 00:35:38;;;;;;;7.47;4.13;;;19.60;99.90;;;;;;5051054;28;20385;-51
2022/07/31 00:38:04;;;;;;;7.53;3.90;;;19.60;99.90;;;;;;5051103;28;20397;-51
2022/07/31 00:40:30;;;;;;;8.50;4.30;;;19.50;99.90;;;;;;5051594;28;20957;-52
2022/07/31 00:42:56;;;;;;;7.57;3.60;;;19.50;99.90;;;;;;5051558;28;20847;-51
2022/07/31 00:45:23;;;;;;;9.40;3.90;;;19.50;99.90;;;;;;5052163;28;20384;-51
2022/07/31 00:47:48;;;;;;;9.10;3.95;;;19.50;99.90;;;;;;5051045;28;20424;-53
2022/07/31 00:50:14;;;;;;;7.53;3.60;;;19.50;99.90;;;;;;5051949;28;20894;-52
2022/07/31 00:52:40;;;;;;;9.95;4.15;;;19.50;99.90;;;;;;5050500;28;20405;-51
2022/07/31 00:55:06;;;;;;;7.88;4.13;;;19.40;99.90;;;;;;5031975;28;20412;-50
2022/07/31 00:57:32;;;;;;;9.52;3.95;;;19.40;99.90;;;;;;5051280;28;20393;-59
2022/07/31 00:59:58;;;;;;;8.37;4.20;;;19.30;99.90;;;;;;5051179;28;20416;-53
2022/07/31 01:02:23;;;;;;;8.93;4.20;;;19.10;99.90;;;;;;5050735;28;20755;-51
2022/07/31 01:04:49;;;;;;;8.30;4.53;;;19.10;99.90;;;;;;5050525;28;20389;-50
2022/07/31 01:07:14;;;;;;;9.05;4.00;;;19.00;99.90;;;;;;5050224;28;20477;-50
2022/07/31 01:09:41;;;;;;;8.70;3.78;;;19.00;99.90;;;;;;5050209;28;20449;-53
2022/07/31 01:12:24;;;;;;;8.80;4.40;;;19.00;99.90;;;;;;5050876;28;20952;-50
2022/07/31 01:14:55;;;;;;;8.90;4.30;;;18.90;99.90;;;;;;5050170;28;20430;-51
2022/07/31 01:17:22;;;;;;;8.55;4.20;;;18.80;99.90;;;;;;5050736;28;20397;-51
2022/07/31 01:19:49;;;;;;;8.75;4.57;;;18.70;99.90;;;;;;5050079;28;20948;-50
2022/07/31 01:22:26;;;;;;;8.10;4.32;;;18.70;99.90;;;;;;5050821;28;20897;-50
2022/07/31 01:25:16;;;;;;;8.50;4.22;;;18.70;99.90;;;;;;5050291;28;20382;-54
2022/07/31 01:28:01;;;;;;;8.70;4.20;;;18.70;99.90;;;;;;5049251;28;20447;-51
2022/07/31 01:30:33;;;;;;;10.93;4.53;;;18.60;99.90;;;;;;5050591;28;20874;-50
2022/07/31 01:33:16;;;;;;;8.65;4.38;;;18.40;99.90;;;;;;5034447;28;20390;-52
2022/07/31 01:35:48;;;;;;;7.90;4.00;;;18.40;1.00;;;;;;5032060;28;20879;-58
2022/07/31 01:38:25;;;;;;;8.25;4.63;;;18.30;1.00;;;;;;5051016;28;20886;-50
2022/07/31 01:40:58;;;;;;;8.60;4.20;;;18.20;1.00;;;;;;5049366;28;20404;-51
2022/07/31 01:43:36;;;;;;;8.30;4.23;;;18.10;1.00;;;;;;5035702;28;20390;-50
2022/07/31 01:46:04;;;;;;;10.63;4.85;;;18.00;1.00;;;;;;5039982;28;20409;-52
2022/07/31 01:48:34;;;;;;;8.23;4.10;;;18.00;1.00;;;;;;5050260;28;20913;-52
2022/07/31 01:51:01;;;;;;;7.60;4.63;;;18.10;1.00;;;;;;5050525;28;20507;-51
2022/07/31 01:53:30;;;;;;;9.55;4.50;;;18.00;1.00;;;;;;5049703;28;20992;-50
2022/07/31 01:55:57;;;;;;;8.50;4.60;;;18.00;1.00;;;;;;5049529;28;20401;-50
2022/07/31 01:58:26;;;;;;;8.60;4.10;;;18.00;1.00;;;;;;5050112;28;20400;-51
2022/07/31 02:00:57;;;;;;;8.70;4.40;;;17.90;1.00;;;;;;5049310;28;20433;-50
2022/07/31 02:03:24;;;;;;;9.10;4.72;;;17.80;1.00;;;;;;5049807;28;20400;-50
2022/07/31 02:05:51;;;;;;;8.80;4.60;;;17.70;20.80;;;;;;5049462;28;20421;-51
2022/07/31 02:08:18;;;;;;;8.10;4.77;;;17.70;64.50;;;;;;5049452;28;20389;-51
2022/07/31 02:10:45;;;;;;;9.57;5.30;;;17.70;99.90;;;;;;5049350;28;20464;-51
2022/07/31 02:13:13;;;;;;;9.70;5.35;;;17.60;99.90;;;;;;5049659;28;20404;-50
2022/07/31 02:15:41;;;;;;;9.75;5.10;;;17.50;99.90;;;;;;5049169;28;20424;-52
2022/07/31 02:18:09;;;;;;;9.90;4.60;;;17.50;99.90;;;;;;5049456;28;20397;-51
2022/07/31 02:20:37;;;;;;;8.70;4.85;;;17.50;99.90;;;;;;5049982;28;20381;-59
2022/07/31 02:23:03;;;;;;;8.82;4.90;;;17.40;99.90;;;;;;5049816;28;20439;-51
2022/07/31 02:25:29;;;;;;;10.25;5.07;;;17.40;99.90;;;;;;5049499;28;20879;-50
2022/07/31 02:27:57;;;;;;;10.40;5.18;;;17.40;99.90;;;;;;5048722;28;20443;-51
2022/07/31 02:30:26;;;;;;;10.30;4.90;;;17.40;99.90;;;;;;5049447;28;20413;-50
2022/07/31 02:32:52;;;;;;;9.85;4.80;;;17.40;99.90;;;;;;5048784;28;20884;-50
2022/07/31 02:35:19;;;;;;;9.40;5.03;;;17.30;1.00;;;;;;5049174;28;20396;-50
2022/07/31 02:37:48;;;;;;;9.20;4.90;;;17.30;1.00;;;;;;5048712;28;20910;-50
2022/07/31 02:40:15;;;;;;;9.30;5.30;;;17.30;1.00;;;;;;5049475;28;20400;-51
2022/07/31 02:42:42;;;;;;;8.80;5.13;;;17.30;1.00;;;;;;5048911;28;20386;-51
2022/07/31 02:45:11;;;;;;;10.07;5.40;;;17.30;1.00;;;;;;5048924;28;20394;-51
2022/07/31 02:47:37;;;;;;;8.73;5.00;;;17.30;1.00;;;;;;5049202;28;20527;-59
2022/07/31 02:50:04;;;;;;;8.30;5.07;;;17.30;1.00;;;;;;5048954;28;20579;-53
2022/07/31 02:52:30;;;;;;;8.60;4.80;;;17.30;1.00;;;;;;5049390;28;20389;-54
2022/07/31 02:54:57;;;;;;;11.05;5.32;;;17.30;99.90;;;;;;5047787;28;20446;-52
2022/07/31 02:57:23;;;;;;;11.38;5.50;;;17.30;1.00;;;;;;5048985;28;20480;-52
2022/07/31 02:59:49;;;;;;;10.97;5.23;;;17.20;1.00;;;;;;5048699;28;20887;-53
2022/07/31 03:02:14;;;;;;;10.20;5.20;;;17.10;1.00;;;;;;5048683;28;20389;-53
2022/07/31 03:04:40;;;;;;;9.13;4.75;;;17.10;96.60;;;;;;5048346;28;20476;-52
2022/07/31 03:07:05;;;;;;;8.90;4.97;;;17.00;99.90;;;;;;5049585;28;20377;-52
2022/07/31 03:09:31;;;;;;;8.33;4.80;;;17.00;99.90;;;;;;5049106;28;20561;-53
2022/07/31 03:11:57;;;;;;;10.60;5.25;;;16.90;1.00;;;;;;5048540;28;20985;-51
2022/07/31 03:14:24;;;;;;;9.45;4.90;;;16.90;99.90;;;;;;5049121;28;20386;-51
2022/07/31 03:16:51;;;;;;;8.30;4.80;;;16.90;99.90;;;;;;5048520;28;20401;-53
2022/07/31 03:19:19;;;;;;;8.10;4.50;;;16.90;99.90;;;;;;5049325;28;20386;-53
2022/07/31 03:21:46;;;;;;;9.23;5.00;;;16.90;99.90;;;;;;5048643;28;20397;-51
2022/07/31 03:24:12;;;;;;;8.60;4.93;;;16.90;99.90;;;;;;5049010;28;20405;-53
2022/07/31 03:26:38;;;;;;;9.80;5.30;;;16.90;99.90;;;;;;5048810;28;20393;-58
2022/07/31 03:29:04;;;;;;;9.00;5.32;;;17.30;3.00;;;;;;5049305;28;20523;-52
2022/07/31 03:31:29;;;;;;;10.27;5.10;;;17.10;25.60;;;;;;5052917;28;20432;-52
2022/07/31 03:33:56;;;;;;;10.48;5.80;;;17.00;99.90;;;;;;5051506;28;20924;-51
2022/07/31 03:36:22;;;;;;;9.53;5.70;;;17.00;99.90;;;;;;5053304;28;20381;-53
2022/07/31 03:38:48;;;;;;;10.50;5.37;;;16.90;39.10;;;;;;5051902;28;20397;-50
2022/07/31 03:41:14;;;;;;;11.80;5.70;;;16.90;1.00;;;;;;5053274;28;20443;-50
2022/07/31 03:43:42;;;;;;;8.80;5.40;;;17.00;1.00;;;;;;5051830;28;20393;-59
2022/07/31 03:46:10;;;;;;;8.93;5.50;;;17.00;27.40;;;;;;5052846;28;20393;-52
2022/07/31 03:48:35;;;;;;;10.38;5.68;;;17.10;1.00;;;;;;5052660;28;20385;-55
2022/07/31 03:51:01;;;;;;;9.20;5.35;;;16.80;1.00;;;;;;5052050;28;20731;-54
2022/07/31 03:53:28;;;;;;;9.50;5.20;;;17.00;1.00;;;;;;5052484;28;20403;-50
2022/07/31 03:55:55;;;;;;;10.40;5.25;;;16.90;1.00;;;;;;5051321;28;20463;-53
2022/07/31 03:58:22;;;;;;;9.73;5.50;;;16.80;95.00;;;;;;5052721;28;20873;-50
2022/07/31 04:00:48;;;;;;;9.95;5.40;;;16.70;99.90;;;;;;5052141;28;20393;-50
2022/07/31 04:03:14;;;;;;;9.30;5.40;;;16.80;1.00;;;;;;5052153;28;20422;-50
2022/07/31 04:05:40;;;;;;;8.50;4.90;;;16.80;38.10;;;;;;5052009;28;20491;-59
2022/07/31 04:08:07;;;;;;;8.90;5.40;;;16.80;99.90;;;;;;5052434;28;20397;-50
2022/07/31 04:10:34;;;;;;;8.82;5.50;;;16.80;99.90;;;;;;5051730;28;20440;-50
2022/07/31 04:13:01;;;;;;;10.05;5.38;;;16.90;1.00;;;;;;5051378;28;21464;-53
2022/07/31 04:15:26;;;;;;;10.73;5.50;;;17.10;1.00;;;;;;5051998;28;20475;-50
2022/07/31 04:17:52;;;;;;;9.18;5.70;;;17.00;1.00;;;;;;5051322;28;20464;-50
2022/07/31 04:20:20;;;;;;;9.90;6.10;;;17.00;1.00;;;;;;5052215;28;20490;-57
2022/07/31 04:22:46;;;;;;;9.80;5.80;;;17.00;1.00;;;;;;5051188;28;20393;-50
2022/07/31 04:25:13;;;;;;;9.95;5.72;;;17.00;1.00;;;;;;5051861;28;20428;-50
2022/07/31 04:27:38;;;;;;;10.40;6.40;;;17.10;1.00;;;;;;5051373;28;20560;-60
2022/07/31 04:30:04;;;;;;;9.82;5.38;;;17.10;1.00;;;;;;5051329;28;21046;-50
2022/07/31 04:32:30;;;;;;;10.73;6.13;;;17.00;1.00;;;;;;5051897;28;20394;-50
2022/07/31 04:34:56;;;;;;;11.20;5.60;;;17.10;1.00;;;;;;5050966;28;20393;-56
2022/07/31 04:37:22;;;;;;;11.00;5.57;;;17.30;1.00;;;;;;5052047;28;20488;-50
2022/07/31 04:39:48;;;;;;;11.97;5.70;;;17.50;1.00;;;;;;5049164;28;20499;-50
2022/07/31 04:42:14;;;;;;;10.23;5.30;;;17.60;1.00;;;;;;5051090;28;20382;-51
2022/07/31 04:44:39;;;;;;;10.68;5.70;;;17.80;1.00;;;;;;5050728;28;20485;-59
2022/07/31 04:47:06;;;;;;;9.33;5.30;;;17.90;99.90;;;;;;5051936;28;20400;-50
2022/07/31 04:49:32;;;;;;;9.85;5.68;;;18.00;99.90;;;;;;5051177;28;20417;-51
2022/07/31 04:51:59;;;;;;;9.90;5.70;;;18.30;99.90;;;;;;5051109;28;20389;-50
2022/07/31 04:54:25;;;;;;;9.73;5.60;;;18.60;99.90;;;;;;5051165;28;20782;-51
2022/07/31 04:56:51;;;;;;;10.87;5.70;;;18.80;99.90;;;;;;5050660;28;20419;-50
2022/07/31 04:59:21;;;;;;;10.05;5.10;;;18.90;79.50;;;;;;5051135;28;20934;-51
2022/07/31 05:01:48;;;;;;;9.18;4.90;;;19.00;26.60;;;;;;5050387;28;20389;-50
2022/07/31 05:04:14;;;;;;;9.50;5.63;;;19.20;1.00;;;;;;5051364;28;20390;-50
2022/07/31 05:06:40;;;;;;;10.87;6.00;;;19.50;1.00;;;;;;5050990;28;20871;-60
2022/07/31 05:09:09;;;;;;;11.50;5.82;;;19.70;1.00;;;;;;5051280;28;20520;-50
2022/07/31 05:11:35;;;;;;;9.07;4.70;;;20.70;1.00;;;;;;5050194;28;20492;-51
2022/07/31 05:14:04;;;;;;;7.97;4.60;;;22.10;99.90;;;;;;5050168;28;20720;-50
2022/07/31 05:16:30;;;;;;;8.93;5.00;;;23.40;99.90;;;;;;5047384;28;20482;-51
2022/07/31 05:18:56;;;;;;;8.95;5.00;;;24.50;99.90;;;;;;5043661;28;20397;-50
2022/07/31 05:21:25;;;;;;;11.13;5.28;;;24.80;99.90;;;;;;5051034;28;20475;-51
2022/07/31 05:23:52;;;;;;;10.35;5.38;;;24.10;99.90;;;;;;5049688;28;20425;-51
2022/07/31 05:26:19;;;;;;;9.57;5.60;;;23.40;99.90;;;;;;5050484;28;20397;-54
2022/07/31 05:28:45;;;;;;;9.45;5.57;;;23.00;99.90;;;;;;5049141;28;20578;-51
2022/07/31 05:31:11;;;;;;;9.60;5.93;;;22.50;99.90;;;;;;5050578;28;20400;-51
2022/07/31 05:33:37;;;;;;;10.07;5.90;;;22.10;99.90;;;;;;5051008;28;20373;-56
2022/07/31 05:36:04;;;;;;;9.50;5.70;;;21.80;99.90;;;;;;5050198;28;20397;-51
2022/07/31 05:38:29;;;;;;;10.60;6.20;;;21.80;99.90;;;;;;5050474;28;20863;-51
2022/07/31 05:40:55;;;;;;;10.30;5.63;;;21.80;99.90;;;;;;5049618;28;20385;-51
2022/07/31 05:43:21;;;;;;;9.52;6.20;;;21.80;99.90;;;;;;5050671;28;20742;-51
2022/07/31 05:45:47;;;;;;;10.65;6.18;;;21.80;99.90;;;;;;5049760;28;20453;-52
2022/07/31 05:48:13;;;;;;;9.60;6.40;;;21.80;99.90;;;;;;5050330;28;20869;-51
2022/07/31 05:50:43;;;;;;;10.43;6.20;;;21.80;99.90;;;;;;5049492;28;20421;-60
2022/07/31 05:53:14;;;;;;;10.57;6.25;;;21.90;99.90;;;;;;5049754;28;20789;-51
2022/07/31 05:55:44;;;;;;;9.93;6.13;;;22.10;99.90;;;;;;5049894;28;20411;-60
2022/07/31 05:58:10;;;;;;;10.23;6.40;;;22.30;99.90;;;;;;5049860;28;20751;-54
2022/07/31 06:00:37;;;;;;;12.30;6.50;;;22.30;99.90;;;;;;5049887;28;20401;-51
2022/07/31 06:03:04;;;;;;;9.43;6.18;;;22.40;99.90;;;;;;5049153;28;20405;-51
2022/07/31 06:05:31;;;;;;;10.43;6.43;;;22.50;99.90;;;;;;5044323;28;20397;-51
2022/07/31 06:08:00;;;;;;;10.77;6.75;;;22.50;99.90;;;;;;5049703;28;20785;-51
2022/07/31 06:10:27;;;;;;;10.30;6.40;;;22.60;99.90;;;;;;5049679;28;20416;-51
2022/07/31 06:12:53;;;;;;;9.57;6.18;;;22.70;99.90;;;;;;5049409;28;20411;-51
2022/07/31 06:15:18;;;;;;;11.17;6.83;;;22.70;99.90;;;;;;5049749;28;20389;-51
2022/07/31 06:17:44;;;;;;;9.27;5.72;;;22.80;99.90;;;;;;5049018;28;20400;-51
2022/07/31 06:20:11;;;;;;;10.00;6.30;;;22.90;99.90;;;;;;5049490;28;20397;-50
2022/07/31 06:22:38;;;;;;;9.30;6.15;;;22.80;99.90;;;;;;5046684;28;20762;-56
2022/07/31 06:25:05;;;;;;;11.63;6.57;;;22.80;99.90;;;;;;5047313;28;20398;-51
2022/07/31 06:27:30;;;;;;;12.82;7.00;;;22.80;99.90;;;;;;5048649;28;20460;-51
2022/07/31 06:29:56;;;;;;;11.40;6.03;;;22.90;99.90;;;;;;5048634;28;20525;-51
2022/07/31 06:32:24;;;;;;;9.82;6.18;;;23.00;99.90;;;;;;5048239;28;20479;-55
2022/07/31 06:34:49;;;;;;;10.90;6.60;;;23.10;99.90;;;;;;5040977;28;20401;-52
2022/07/31 06:37:15;;;;;;;9.97;6.10;;;23.00;99.90;;;;;;5043357;28;20446;-51
2022/07/31 06:39:41;;;;;;;10.10;5.87;;;23.20;99.90;;;;;;5040581;28;20393;-59
2022/07/31 06:42:07;;;;;;;12.07;6.30;;;23.40;99.90;;;;;;5049498;28;20396;-51
2022/07/31 06:44:33;;;;;;;10.23;6.25;;;23.30;99.90;;;;;;5049784;28;20378;-51
2022/07/31 06:46:59;;;;;;;9.25;6.03;;;23.40;99.90;;;;;;5062432;28;20462;-51
2022/07/31 06:49:25;;;;;;;12.75;6.60;;;23.70;99.90;;;;;;5054097;28;20831;-51
2022/07/31 06:51:51;;;;;;;11.00;6.30;;;24.00;99.90;;;;;;5047957;28;20476;-51
2022/07/31 06:54:16;;;;;;;11.10;6.90;;;24.20;99.90;;;;;;5049536;28;20381;-51
2022/07/31 06:56:42;;;;;;;9.95;6.10;;;24.10;99.90;;;;;;5048627;28;20882;-60
2022/07/31 06:59:09;;;;;;;9.20;6.00;;;24.20;99.90;;;;;;5049530;28;20847;-51
2022/07/31 07:01:34;;;;;;;10.20;6.00;;;24.30;99.90;;;;;;5048470;28;20413;-51
2022/07/31 07:04:00;;;;;;;9.83;6.50;;;24.20;99.90;;;;;;5047127;28;20622;-52
2022/07/31 07:06:26;;;;;;;10.67;6.07;;;24.00;99.90;;;;;;5049404;28;20381;-51
2022/07/31 07:08:52;;;;;;;9.70;6.22;;;24.20;99.90;;;;;;5048915;28;20382;-51
2022/07/31 07:11:19;;;;;;;12.80;6.10;;;24.60;99.90;;;;;;5048534;28;20874;-54
2022/07/31 07:13:44;;;;;;;9.10;6.00;;;24.90;99.90;;;;;;5047985;28;20437;-59
2022/07/31 07:16:10;;;;;;;9.97;5.70;;;25.20;99.90;;;;;;5046667;28;20429;-51
2022/07/31 07:18:36;;;;;;;9.93;5.83;;;25.50;99.90;;;;;;5047192;28;20400;-51
2022/07/31 07:21:01;;;;;;;10.43;6.03;;;25.80;99.90;;;;;;5047993;28;20412;-51
2022/07/31 07:23:27;;;;;;;9.40;6.00;;;25.80;99.90;;;;;;5047788;28;20397;-51
2022/07/31 07:25:53;;;;;;;9.07;5.83;;;25.90;99.90;;;;;;5046782;28;21008;-52
2022/07/31 07:28:18;;;;;;;10.23;5.90;;;26.10;99.90;;;;;;5047760;28;20459;-51
2022/07/31 07:30:44;;;;;;;9.27;5.33;;;26.60;99.90;;;;;;5047704;28;20500;-60
2022/07/31 07:33:09;;;;;;;8.60;5.00;;;27.10;1.00;;;;;;5047316;28;20786;-54
2022/07/31 07:35:35;;;;;;;10.03;5.70;;;27.30;99.90;;;;;;5048025;28;20389;-52
2022/07/31 07:38:01;;;;;;;9.00;5.17;;;27.60;99.90;;;;;;5046256;28;21084;-51
2022/07/31 07:40:28;;;;;;;10.43;5.70;;;27.90;99.90;;;;;;5029692;28;20492;-51
2022/07/31 07:42:53;;;;;;;8.90;5.40;;;27.80;99.90;;;;;;5047190;28;20389;-53
2022/07/31 07:45:19;;;;;;;8.83;5.30;;;27.70;99.90;;;;;;5030223;28;20393;-52
2022/07/31 07:47:45;;;;;;;9.70;5.30;;;27.60;99.90;;;;;;5047452;28;20400;-61
2022/07/31 07:50:11;;;;;;;10.20;5.50;;;27.70;99.90;;;;;;5047712;28;20409;-54
2022/07/31 07:52:37;;;;;;;9.32;5.03;;;27.90;99.90;;;;;;5047585;28;20389;-51
2022/07/31 07:55:05;;;;;;;9.77;5.70;;;28.30;99.90;;;;;;5045142;28;21079;-51
2022/07/31 07:57:31;;;;;;;8.40;5.20;;;28.20;99.90;;;;;;5046861;28;20443;-51
2022/07/31 08:00:00;;;;;;;10.95;5.50;;;27.90;99.90;;;;;;5046898;28;20389;-52
2022/07/31 08:02:25;;;;;;;8.10;4.80;;;28.00;99.90;;;;;;5048089;28;20789;-52
2022/07/31 08:04:51;;;;;;;10.00;5.38;;;27.80;99.90;;;;;;5046930;28;20389;-51
2022/07/31 08:07:25;;;;;;;9.88;5.40;;;27.70;99.90;;;;;;5047374;28;20382;-52
2022/07/31 08:09:51;;;;;;;10.35;5.25;;;28.20;99.90;;;;;;5029092;28;20414;-52
2022/07/31 08:12:17;;;;;;;10.30;4.57;;;;;;;;;;5047720;28;20386;-52
2022/07/31 08:14:42;;;;;;;13.15;7.40;;;29.40;99.90;;;;;;5047104;28;20382;-60
2022/07/31 08:17:11;;;;;;;8.30;4.80;;;30.30;99.90;;;;;;5050311;28;20409;-53
2022/07/31 08:19:37;;;;;;;8.73;5.30;;;31.10;99.90;;;;;;5049532;28;20804;-52
2022/07/31 08:22:03;;;;;;;9.35;5.40;;;31.30;99.90;;;;;;5050936;28;20484;-52
2022/07/31 08:24:28;;;;;;;8.05;4.35;;;31.60;99.90;;;;;;5051155;28;20389;-53
2022/07/31 08:29:38;;;;;;;10.75;4.90;;;31.80;99.90;;;;;;5050398;28;20520;-52
2022/07/31 08:32:04;;;;;;;8.10;4.70;;;32.90;99.90;;;;;;5050731;28;20381;-52
2022/07/31 08:34:31;;;;;;;9.63;5.60;;;34.40;99.90;;;;;;5050346;28;20417;-57
2022/07/31 08:36:57;;;;;;;7.93;4.97;;;35.00;99.90;;;;;;5051538;28;20472;-52
2022/07/31 08:39:22;;;;;;;10.52;5.40;;;35.70;99.90;;;;;;5050911;28;20843;-56
2022/07/31 08:41:48;;;;;;;7.00;4.80;;;37.10;99.90;;;;;;5049497;28;21299;-54
2022/07/31 08:44:14;;;;;;;6.85;3.90;;;37.90;99.90;;;;;;5050220;28;20414;-53
2022/07/31 08:46:40;;;;;;;7.90;4.80;;;38.00;99.90;;;;;;5047001;28;20398;-56
2022/07/31 08:49:08;;;;;;;8.65;5.28;;;38.30;99.90;;;;;;5047555;28;20602;-51
2022/07/31 08:51:36;;;;;;;9.03;5.10;;;37.70;99.90;;;;;;5047264;28;20398;-56
2022/07/31 08:54:05;;;;;;;8.75;5.18;;;37.00;99.90;;;;;;5046142;28;20397;-55
2022/07/31 08:56:34;;;;;;;11.55;5.10;;;37.30;99.90;;;;;;5048024;28;20961;-53
2022/07/31 08:59:00;;;;;;;8.65;5.20;;;38.30;99.90;;;;;;5048981;28;20770;-53
2022/07/31 09:01:26;;;;;;;11.35;5.10;;;38.20;99.90;;;;;;5050383;28;20389;-54
2022/07/31 09:03:53;;;;;;;8.30;4.90;;;37.80;99.90;;;;;;5049007;28;20408;-55
2022/07/31 09:06:19;;;;;;;10.47;5.30;;;36.80;99.90;;;;;;5050333;28;20431;-53
2022/07/31 09:08:45;;;;;;;8.27;5.30;;;35.10;99.90;;;;;;5049474;28;20397;-60
2022/07/31 09:11:13;;;;;;;7.93;5.90;;;34.10;99.90;;;;;;5050461;28;20452;-51
2022/07/31 09:13:40;;;;;;;8.60;4.90;;;33.80;99.90;;;;;;5050824;28;20393;-54
2022/07/31 09:16:06;;;;;;;10.80;4.97;;;35.50;99.90;;;;;;5050073;28;20441;-54
2022/07/31 09:18:32;;;;;;;6.95;4.60;;;36.40;99.90;;;;;;5050323;28;20428;-54
2022/07/31 09:21:00;;;;;;;7.70;4.40;;;36.20;99.90;;;;;;5048922;28;20459;-55
2022/07/31 09:23:26;;;;;;;7.70;4.80;;;35.80;99.90;;;;;;5049522;28;20385;-53
2022/07/31 09:26:01;;;;;;;8.00;5.30;;;36.70;99.90;;;;;;5049246;28;20894;-53
2022/07/31 09:28:41;;;;;;;6.80;4.05;;;36.10;99.90;;;;;;5045983;28;20445;-54
2022/07/31 09:31:08;;;;;;;5.82;3.30;;;36.60;99.90;;;;;;5048724;28;20436;-53
2022/07/31 09:33:38;;;;;;;6.60;4.65;;;36.60;99.90;;;;;;5051686;28;20787;-55
2022/07/31 09:36:05;;;;;;;7.88;4.90;;;36.60;99.90;;;;;;5049335;28;21031;-54
2022/07/31 09:38:34;;;;;;;6.43;3.90;;;36.20;99.90;;;;;;5046563;28;20496;-59
2022/07/31 09:41:17;;;;;;;6.95;4.00;;;36.00;99.90;;;;;;5049034;28;20490;-54
2022/07/31 09:43:59;;;;;;;7.60;4.40;;;36.10;99.90;;;;;;5047794;28;20439;-53
2022/07/31 09:46:26;;;;;;;8.05;4.40;;;35.30;99.90;;;;;;5051365;28;20787;-53
2022/07/31 09:48:54;;;;;;;9.00;4.50;;;34.00;99.90;;;;;;5048558;28;20398;-53
2022/07/31 09:51:21;;;;;;;6.90;4.20;;;33.60;99.90;;;;;;5050188;28;20902;-56
2022/07/31 09:53:55;;;;;;;8.30;4.20;;;34.00;99.90;;;;;;5048952;28;20397;-62
2022/07/31 09:56:33;;;;;;;8.07;4.70;;;35.60;99.90;;;;;;5047521;28;20408;-56
2022/07/31 09:59:00;;;;;;;9.68;4.20;;;37.20;99.90;;;;;;5045589;28;20413;-58
2022/07/31 10:01:26;;;;;;;6.63;3.72;;;38.80;99.90;;;;;;5044358;28;20815;-52
2022/07/31 10:03:54;;;;;;;7.65;3.85;;;39.30;99.90;;;;;;5047473;28;20488;-52
2022/07/31 10:06:21;;;;;;;6.90;5.60;;;39.20;99.90;;;;;;5048434;28;20436;-51
2022/07/31 10:08:48;;;;;;;7.00;4.47;;;39.70;99.90;;;;;;5047161;28;20425;-61
2022/07/31 10:11:21;;;;;;;7.95;4.60;;;40.00;99.90;;;;;;5047777;28;20410;-53
2022/07/31 10:13:49;;;;;;;6.80;3.90;;;39.20;99.90;;;;;;5048667;28;20393;-64
2022/07/31 10:16:15;;;;;;;6.18;3.80;;;39.20;99.90;;;;;;5031041;28;20747;-52
2022/07/31 10:18:46;;;;;;;8.73;3.90;;;39.20;99.90;;;;;;5047157;28;20400;-55
2022/07/31 10:21:15;;;;;;;6.40;4.60;;;39.90;99.90;;;;;;5045982;28;20391;-55
2022/07/31 10:23:42;;;;;;;7.13;4.30;;;39.20;99.90;;;;;;5047271;28;20899;-54
2022/07/31 10:26:09;;;;;;;7.60;4.30;;;38.30;99.90;;;;;;5047730;28;20435;-53
2022/07/31 10:28:38;;;;;;;7.10;3.90;;;37.10;99.90;;;;;;5049052;28;20854;-53
2022/07/31 10:31:04;;;;;;;6.20;3.15;;;36.90;99.90;;;;;;5048342;28;20402;-53
2022/07/31 10:33:31;;;;;;;6.60;3.73;;;36.80;99.90;;;;;;5046259;28;20382;-53
2022/07/31 10:36:13;;;;;;;7.38;3.80;;;37.10;99.90;;;;;;5048676;28;20427;-53
2022/07/31 10:38:53;;;;;;;6.40;3.80;;;37.10;99.90;;;;;;5048284;28;20551;-53
2022/07/31 10:41:30;;;;;;;8.10;4.10;;;36.60;99.90;;;;;;5046910;28;20401;-54
2022/07/31 10:44:06;;;;;;;8.90;4.20;;;35.70;99.90;;;;;;5046830;28;20444;-54
2022/07/31 10:46:32;;;;;;;7.30;4.40;;;35.20;99.90;;;;;;5048784;28;20401;-53
2022/07/31 10:48:59;;;;;;;9.07;4.10;;;34.80;99.90;;;;;;5048134;28;20431;-54
2022/07/31 10:51:25;;;;;;;6.50;4.00;;;34.50;99.90;;;;;;5048314;28;20377;-54
2022/07/31 10:53:59;;;;;;;6.40;4.00;;;34.50;99.90;;;;;;5047788;28;20389;-53
2022/07/31 10:56:26;;;;;;;8.40;4.18;;;34.30;99.90;;;;;;5048469;28;20488;-54
2022/07/31 10:58:57;;;;;;;7.10;4.70;;;34.50;99.90;;;;;;5047747;28;20894;-54
2022/07/31 11:01:25;;;;;;;7.00;3.90;;;34.00;99.90;;;;;;5048932;28;20439;-52
2022/07/31 11:04:01;;;;;;;7.93;4.15;;;33.40;99.90;;;;;;5047641;28;20424;-53
2022/07/31 11:06:40;;;;;;;6.68;4.30;;;33.10;99.90;;;;;;5035686;28;20402;-53
2022/07/31 11:09:07;;;;;;;7.00;4.50;;;33.20;99.90;;;;;;5047805;28;21028;-53
2022/07/31 11:11:35;;;;;;;11.13;4.73;;;33.20;99.90;;;;;;5048945;28;20407;-53
2022/07/31 11:14:01;;;;;;;6.90;4.40;;;32.50;99.90;;;;;;5047980;28;20735;-57
2022/07/31 11:16:28;;;;;;;7.30;5.15;;;32.50;99.90;;;;;;5049221;28;20394;-60
2022/07/31 11:19:02;;;;;;;6.97;4.63;;;32.80;99.90;;;;;;5045647;28;20397;-53
2022/07/31 11:21:32;;;;;;;7.30;4.32;;;32.90;99.90;;;;;;5048391;28;20407;-53
2022/07/31 11:23:58;;;;;;;7.80;5.20;;;32.90;99.90;;;;;;5041187;28;20394;-53
2022/07/31 11:26:24;;;;;;;7.30;4.30;;;33.00;99.90;;;;;;5048415;28;20861;-55
2022/07/31 11:28:50;;;;;;;6.97;3.80;;;33.60;99.90;;;;;;5047084;28;20452;-62
2022/07/31 11:31:15;;;;;;;8.10;3.90;;;34.00;99.90;;;;;;5048499;28;20455;-53
2022/07/31 11:33:43;;;;;;;7.15;4.50;;;34.20;99.90;;;;;;5047756;28;20382;-54
2022/07/31 11:36:23;;;;;;;8.40;3.95;;;33.90;99.90;;;;;;5047599;28;20401;-53
2022/07/31 11:38:51;;;;;;;8.52;3.90;;;33.60;99.90;;;;;;5041599;28;20480;-61
2022/07/31 11:41:20;;;;;;;7.70;4.45;;;33.40;99.90;;;;;;5042694;28;20392;-53
2022/07/31 11:43:48;;;;;;;8.90;4.20;;;33.20;99.90;;;;;;5048386;28;20477;-53
2022/07/31 11:46:30;;;;;;;8.43;4.30;;;33.10;99.90;;;;;;5047820;28;20488;-58
2022/07/31 11:48:57;;;;;;;8.00;4.60;;;33.00;99.90;;;;;;5051185;28;20862;-53
2022/07/31 11:51:23;;;;;;;7.07;4.10;;;32.90;99.90;;;;;;5050738;28;20397;-53
2022/07/31 11:53:50;;;;;;;9.20;4.43;;;32.90;99.90;;;;;;5051949;28;20385;-61
2022/07/31 11:56:19;;;;;;;7.00;4.78;;;33.00;99.90;;;;;;5050627;28;20404;-53
2022/07/31 11:58:47;;;;;;;7.20;4.40;;;32.80;99.90;;;;;;5048793;28;20382;-53
2022/07/31 12:01:13;;;;;;;6.80;4.07;;;32.40;99.90;;;;;;5051161;28;20384;-53
2022/07/31 12:03:39;;;;;;;7.40;4.32;;;31.90;99.90;;;;;;5049944;28;20866;-52
2022/07/31 12:06:07;;;;;;;8.55;4.40;;;32.10;99.90;;;;;;5047728;28;20393;-54
2022/07/31 12:08:36;;;;;;;7.45;4.63;;;31.80;99.90;;;;;;5050309;28;20377;-53
2022/07/31 12:11:04;;;;;;;8.65;4.57;;;32.00;99.90;;;;;;5046467;28;20466;-53
2022/07/31 12:13:31;;;;;;;8.83;4.83;;;32.30;99.90;;;;;;5049919;28;20394;-53
2022/07/31 12:15:56;;;;;;;8.90;4.60;;;32.60;99.90;;;;;;5047921;28;20435;-54
2022/07/31 12:18:22;;;;;;;6.77;4.13;;;32.60;99.90;;;;;;5045838;28;20441;-53
2022/07/31 12:21:02;;;;;;;9.90;4.80;;;32.30;99.90;;;;;;5050388;28;20390;-63
2022/07/31 12:23:58;;;;;;;8.10;4.50;;;32.30;99.90;;;;;;5047561;28;20401;-57
2022/07/31 12:26:25;;;;;;;7.30;5.10;;;32.10;99.90;;;;;;5038234;28;20504;-55
2022/07/31 12:29:00;;;;;;;8.60;4.23;;;32.40;99.90;;;;;;5047395;28;20416;-60
2022/07/31 12:31:27;;;;;;;8.13;4.70;;;31.70;99.90;;;;;;5048731;28;20393;-53
2022/07/31 12:33:53;;;;;;;7.90;5.50;;;31.50;99.90;;;;;;5048106;28;20434;-53
2022/07/31 12:36:19;;;;;;;10.50;5.50;;;31.70;99.90;;;;;;5049979;28;20393;-53
2022/07/31 12:38:45;;;;;;;7.40;4.13;;;31.70;99.90;;;;;;5050398;28;20393;-54
2022/07/31 12:41:12;;;;;;;7.50;4.10;;;31.90;99.90;;;;;;5048479;28;20385;-53
2022/07/31 12:43:37;;;;;;;7.80;4.30;;;32.00;99.90;;;;;;5047869;28;20381;-56
2022/07/31 12:46:06;;;;;;;7.15;4.05;;;32.30;99.90;;;;;;5048198;28;20397;-55
2022/07/31 12:48:32;;;;;;;6.80;3.83;;;32.60;99.90;;;;;;5049346;28;20398;-53
2022/07/31 12:50:58;;;;;;;6.93;4.75;;;32.80;99.90;;;;;;5048490;28;20412;-53